Time;durP1;ratioP1;P1;durP2;ratioP2;P2;SDS_P1;SDS_P2;PMS_P1;PMS_P2;Temp;Humidity;BMP_temperature;BMP_pressure;BME280_temperature;BME280_humidity;BME280_pressure;Samples;Min_cycle;Max_cycle;Signal;HPM_P1;HPM_P2
2024/04/25 00:01:24;;;;;;;3.50;2.70;;;2.10;99.90;;;;;;5274887;27;20025;-83
2024/04/25 00:03:50;;;;;;;5.10;3.50;;;2.20;99.90;;;;;;5274989;27;20010;-83
2024/04/25 00:06:15;;;;;;;3.87;3.03;;;2.20;99.90;;;;;;5273704;27;20014;-83
2024/04/25 00:08:41;;;;;;;3.87;3.10;;;2.30;99.90;;;;;;5275260;27;20133;-83
2024/04/25 00:11:07;;;;;;;4.27;3.43;;;2.30;99.90;;;;;;5275301;27;20010;-83
2024/04/25 00:13:32;;;;;;;3.50;3.00;;;2.30;99.90;;;;;;5276414;27;20014;-83
2024/04/25 00:16:00;;;;;;;4.23;3.00;;;2.30;99.90;;;;;;5273907;27;20014;-83
2024/04/25 00:18:26;;;;;;;3.90;3.20;;;2.30;99.90;;;;;;5275370;27;20011;-83
2024/04/25 00:20:52;;;;;;;4.50;3.23;;;2.30;99.90;;;;;;5274539;27;20364;-83
2024/04/25 00:23:17;;;;;;;4.60;3.47;;;2.30;99.90;;;;;;5274615;27;20017;-83
2024/04/25 00:25:43;;;;;;;4.43;3.10;;;2.30;99.90;;;;;;5274179;27;20013;-83
2024/04/25 00:28:08;;;;;;;5.10;3.57;;;2.30;99.90;;;;;;5274405;27;19994;-83
2024/04/25 00:30:34;;;;;;;4.23;3.07;;;2.40;99.90;;;;;;5274729;27;20097;-83
2024/04/25 00:32:59;;;;;;;5.63;2.93;;;2.40;99.90;;;;;;5274169;27;20021;-83
2024/04/25 00:35:25;;;;;;;4.80;3.40;;;2.40;99.90;;;;;;5275195;27;20012;-83
2024/04/25 00:37:51;;;;;;;4.77;3.00;;;2.50;99.90;;;;;;5274413;27;21700;-83
2024/04/25 00:40:16;;;;;;;4.63;3.67;;;2.60;99.90;;;;;;5274255;27;20026;-83
2024/04/25 00:42:42;;;;;;;5.20;3.30;;;2.60;99.90;;;;;;5274907;27;20002;-83
2024/04/25 00:45:08;;;;;;;4.60;3.43;;;2.60;99.90;;;;;;5275444;27;20006;-83
2024/04/25 00:47:35;;;;;;;3.77;3.03;;;2.70;99.90;;;;;;5272040;27;20010;-83
2024/04/25 00:50:01;;;;;;;4.73;3.33;;;2.70;99.90;;;;;;5272977;27;20611;-82
2024/04/25 00:52:27;;;;;;;4.97;3.40;;;2.80;99.90;;;;;;5273483;27;20020;-83
2024/04/25 00:54:53;;;;;;;5.60;3.50;;;2.80;99.90;;;;;;5274423;27;20006;-83
2024/04/25 00:57:21;;;;;;;4.67;3.73;;;2.80;99.90;;;;;;5273745;27;20367;-83
2024/04/25 00:59:49;;;;;;;5.73;3.63;;;2.80;99.90;;;;;;5273194;27;20050;-83
2024/04/25 01:02:16;;;;;;;6.20;4.33;;;2.80;99.90;;;;;;5273919;27;20042;-83
2024/04/25 01:04:43;;;;;;;5.40;4.03;;;2.80;99.90;;;;;;5272995;27;20109;-83
2024/04/25 01:07:09;;;;;;;6.00;4.17;;;2.90;99.90;;;;;;5271333;27;20041;-83
2024/04/25 01:09:35;;;;;;;4.83;3.90;;;2.90;99.90;;;;;;5274175;27;20010;-83
2024/04/25 01:12:01;;;;;;;4.77;3.90;;;3.00;99.90;;;;;;5274859;27;20017;-83
2024/04/25 01:14:27;;;;;;;7.63;4.27;;;3.00;99.90;;;;;;5272611;27;20194;-83
2024/04/25 01:16:54;;;;;;;7.50;4.40;;;3.00;99.90;;;;;;5270435;27;19998;-83
2024/04/25 01:19:20;;;;;;;7.60;4.10;;;3.10;99.90;;;;;;5274158;27;20002;-83
2024/04/25 01:21:48;;;;;;;5.20;4.17;;;3.00;99.90;;;;;;5272863;27;20010;-83
2024/04/25 01:24:27;;;;;;;4.90;3.80;;;3.10;99.90;;;;;;5274262;27;20021;-83
2024/04/25 01:26:54;;;;;;;4.97;3.87;;;3.00;99.90;;;;;;5271026;27;19998;-83
2024/04/25 01:29:19;;;;;;;5.30;3.90;;;3.00;99.90;;;;;;5273091;27;20007;-83
2024/04/25 01:31:46;;;;;;;6.60;4.40;;;3.00;99.90;;;;;;5273897;27;20003;-83
2024/04/25 01:34:13;;;;;;;7.07;4.40;;;3.00;99.90;;;;;;5274635;27;20148;-83
2024/04/25 01:36:42;;;;;;;6.10;4.00;;;2.90;99.90;;;;;;5271248;27;20017;-82
2024/04/25 01:39:11;;;;;;;5.33;4.10;;;2.80;99.90;;;;;;5274146;27;20002;-83
2024/04/25 01:41:37;;;;;;;7.07;4.70;;;2.80;99.90;;;;;;5271836;27;20014;-83
2024/04/25 01:44:03;;;;;;;5.73;4.23;;;2.70;99.90;;;;;;5274157;27;20013;-83
2024/04/25 01:46:28;;;;;;;7.10;4.73;;;2.70;99.90;;;;;;5273454;27;20022;-83
2024/04/25 01:48:54;;;;;;;5.60;4.63;;;2.60;99.90;;;;;;5274930;27;20058;-83
2024/04/25 01:51:21;;;;;;;7.07;4.20;;;2.60;99.90;;;;;;5275319;27;20057;-82
2024/04/25 01:53:47;;;;;;;7.13;4.77;;;2.50;99.90;;;;;;5278370;27;20075;-83
2024/04/25 01:56:13;;;;;;;8.67;5.10;;;2.50;99.90;;;;;;5275824;27;20021;-83
2024/04/25 01:58:39;;;;;;;8.10;4.73;;;2.40;99.90;;;;;;5273724;27;19998;-83
2024/04/25 02:01:05;;;;;;;7.77;5.17;;;2.40;99.90;;;;;;5273232;27;20125;-83
2024/04/25 02:03:30;;;;;;;6.87;4.50;;;2.50;99.90;;;;;;5273479;27;20013;-83
2024/04/25 02:05:56;;;;;;;7.17;4.87;;;2.50;99.90;;;;;;5271487;27;20003;-83
2024/04/25 02:08:22;;;;;;;6.27;4.80;;;2.60;99.90;;;;;;5273581;27;20021;-83
2024/04/25 02:10:48;;;;;;;6.77;4.77;;;2.60;99.90;;;;;;5276563;27;20089;-82
2024/04/25 02:13:13;;;;;;;7.10;5.00;;;2.60;99.90;;;;;;5276953;27;20010;-83
2024/04/25 02:15:39;;;;;;;5.73;4.87;;;2.70;99.90;;;;;;5274731;27;20025;-83
2024/04/25 02:18:05;;;;;;;6.53;4.37;;;2.70;99.90;;;;;;5276093;27;20006;-83
2024/04/25 02:26:02;;;;;;;6.25;4.43;;;2.70;99.90;;;;;;5275941;27;20006;-83
2024/04/25 02:28:28;;;;;;;7.30;4.83;;;2.80;99.90;;;;;;5276626;27;20003;-83
2024/04/25 02:30:54;;;;;;;5.47;4.33;;;2.70;99.90;;;;;;5276392;27;20017;-83
2024/04/25 02:33:19;;;;;;;6.13;4.57;;;2.70;99.90;;;;;;5275736;27;20018;-83
2024/04/25 02:35:45;;;;;;;6.53;4.47;;;2.70;99.90;;;;;;5274975;27;20002;-83
2024/04/25 02:38:11;;;;;;;5.87;4.57;;;2.70;99.90;;;;;;5277414;27;20006;-83
2024/04/25 02:40:36;;;;;;;6.40;4.63;;;2.70;99.90;;;;;;5275357;27;21043;-83
2024/04/25 02:43:02;;;;;;;6.50;4.67;;;2.60;99.90;;;;;;5275816;27;20014;-83
2024/04/25 02:45:27;;;;;;;6.53;5.13;;;2.60;99.90;;;;;;5275993;27;20015;-83
2024/04/25 02:47:53;;;;;;;7.20;4.97;;;2.60;99.90;;;;;;5276040;27;19998;-83
2024/04/25 02:50:19;;;;;;;5.70;4.60;;;2.50;99.90;;;;;;5276908;27;20037;-83
2024/04/25 02:52:44;;;;;;;8.47;5.07;;;2.50;99.90;;;;;;5276663;27;20014;-82
2024/04/25 02:55:10;;;;;;;6.90;5.40;;;2.50;99.90;;;;;;5275237;27;19998;-83
2024/04/25 02:57:35;;;;;;;7.93;5.20;;;2.50;99.90;;;;;;5273397;27;20013;-83
2024/04/25 03:00:01;;;;;;;5.70;4.70;;;2.50;99.90;;;;;;5274708;27;20010;-83
2024/04/25 03:02:28;;;;;;;8.80;4.77;;;2.50;99.90;;;;;;5276711;27;20010;-82
2024/04/25 03:04:53;;;;;;;7.00;5.50;;;2.50;99.90;;;;;;5274737;27;20018;-83
2024/04/25 03:07:19;;;;;;;7.43;5.37;;;2.50;99.90;;;;;;5276516;27;20009;-83
2024/04/25 03:09:45;;;;;;;6.97;5.33;;;2.60;99.90;;;;;;5275546;27;20021;-83
2024/04/25 03:12:10;;;;;;;8.33;5.70;;;2.60;99.90;;;;;;5275405;27;20020;-83
2024/04/25 03:14:36;;;;;;;8.03;4.87;;;2.50;99.90;;;;;;5275642;27;19998;-83
2024/04/25 03:17:01;;;;;;;8.17;5.53;;;2.50;99.90;;;;;;5275419;27;20031;-83
2024/04/25 03:19:27;;;;;;;7.33;5.40;;;2.50;99.90;;;;;;5274791;27;20014;-83
2024/04/25 03:21:52;;;;;;;6.57;5.00;;;2.50;99.90;;;;;;5273825;27;20064;-83
2024/04/25 03:24:18;;;;;;;7.93;4.57;;;2.50;99.90;;;;;;5275004;27;20013;-82
2024/04/25 03:26:43;;;;;;;8.13;5.33;;;2.50;99.90;;;;;;5274390;27;20025;-83
2024/04/25 03:29:09;;;;;;;7.47;5.07;;;2.50;99.90;;;;;;5276545;27;20013;-83
2024/04/25 03:31:34;;;;;;;7.57;5.07;;;2.50;99.90;;;;;;5275333;27;20026;-82
2024/04/25 03:34:00;;;;;;;8.93;5.27;;;2.50;99.90;;;;;;5275612;27;20010;-83
2024/04/25 03:36:25;;;;;;;7.03;5.73;;;2.50;99.90;;;;;;5273742;27;20021;-83
2024/04/25 03:38:51;;;;;;;8.13;5.60;;;2.50;99.90;;;;;;5274663;27;20054;-83
2024/04/25 03:41:17;;;;;;;9.93;5.50;;;2.40;99.90;;;;;;5275100;27;20014;-83
2024/04/25 03:43:43;;;;;;;7.53;5.30;;;2.40;99.90;;;;;;5275087;27;20002;-83
2024/04/25 03:46:09;;;;;;;8.93;5.60;;;2.40;99.90;;;;;;5273178;27;19998;-83
2024/04/25 03:48:34;;;;;;;8.33;5.53;;;2.40;99.90;;;;;;5272575;27;20002;-83
2024/04/25 03:51:00;;;;;;;7.60;5.40;;;2.30;99.90;;;;;;5274512;27;19999;-82
2024/04/25 03:53:26;;;;;;;9.60;6.20;;;2.30;99.90;;;;;;5272997;27;20006;-83
2024/04/25 03:55:51;;;;;;;10.03;5.73;;;2.30;99.90;;;;;;5273811;27;20010;-83
2024/04/25 03:58:17;;;;;;;8.73;5.60;;;2.20;99.90;;;;;;5274205;27;20006;-83
2024/04/25 04:00:42;;;;;;;10.00;5.90;;;2.20;99.90;;;;;;5272783;27;20002;-83
2024/04/25 04:03:08;;;;;;;8.37;5.17;;;2.20;99.90;;;;;;5275363;27;20006;-82
2024/04/25 04:05:33;;;;;;;8.17;5.60;;;2.20;99.90;;;;;;5275165;27;19995;-84
2024/04/25 04:07:59;;;;;;;8.43;5.97;;;2.20;99.90;;;;;;5275189;27;20032;-83
2024/04/25 04:10:25;;;;;;;7.33;5.33;;;2.20;99.90;;;;;;5274122;27;20010;-83
2024/04/25 04:12:50;;;;;;;7.47;5.57;;;2.20;99.90;;;;;;5273602;27;20076;-83
2024/04/25 04:15:16;;;;;;;7.33;5.20;;;2.20;99.90;;;;;;5274157;27;20090;-83
2024/04/25 04:17:41;;;;;;;7.60;5.17;;;2.10;99.90;;;;;;5273066;27;20018;-83
2024/04/25 04:20:07;;;;;;;9.70;6.03;;;2.10;99.90;;;;;;5271588;27;20017;-83
2024/04/25 04:22:35;;;;;;;9.80;5.77;;;2.10;99.90;;;;;;5272310;27;20089;-83
2024/04/25 04:25:01;;;;;;;9.30;6.27;;;2.10;99.90;;;;;;5271018;27;20054;-83
2024/04/25 04:27:26;;;;;;;9.83;5.40;;;2.00;99.90;;;;;;5270729;27;20061;-84
2024/04/25 04:29:52;;;;;;;9.47;6.17;;;2.10;99.90;;;;;;5271281;27;20070;-84
2024/04/25 04:32:18;;;;;;;9.13;5.43;;;2.00;99.90;;;;;;5269525;27;20046;-84
2024/04/25 04:34:44;;;;;;;8.93;5.40;;;2.00;99.90;;;;;;5258396;27;20018;-75
2024/04/25 04:37:11;;;;;;;8.87;5.60;;;2.00;99.90;;;;;;5257656;27;20056;-75
2024/04/25 04:39:37;;;;;;;7.57;5.43;;;2.10;99.90;;;;;;5262137;27;20025;-83
2024/04/25 04:42:03;;;;;;;7.77;4.80;;;2.10;99.90;;;;;;5268224;27;20010;-83
2024/04/25 04:44:28;;;;;;;7.27;5.20;;;2.10;99.90;;;;;;5270919;27;20009;-84
2024/04/25 04:46:54;;;;;;;7.73;5.80;;;2.10;99.90;;;;;;5270528;27;20039;-83
2024/04/25 04:49:20;;;;;;;8.60;5.90;;;2.20;99.90;;;;;;5270888;27;19994;-83
2024/04/25 04:51:45;;;;;;;9.07;4.97;;;2.20;99.90;;;;;;5270337;27;20010;-83
2024/04/25 04:54:12;;;;;;;6.77;5.17;;;2.30;99.90;;;;;;5268892;27;20221;-83
2024/04/25 04:56:39;;;;;;;9.63;5.50;;;2.30;99.90;;;;;;5270461;27;20021;-83
2024/04/25 04:59:04;;;;;;;9.67;5.50;;;2.40;99.90;;;;;;5270490;27;20389;-83
2024/04/25 05:01:30;;;;;;;9.97;5.70;;;2.50;99.90;;;;;;5271731;27;20101;-84
2024/04/25 05:03:56;;;;;;;9.03;5.30;;;2.60;99.90;;;;;;5270300;27;20021;-82
2024/04/25 05:06:21;;;;;;;7.37;4.43;;;2.80;99.90;;;;;;5263813;27;20012;-83
2024/04/25 05:08:47;;;;;;;9.13;4.80;;;2.80;99.90;;;;;;5265426;27;20026;-82
2024/04/25 05:11:13;;;;;;;7.60;4.50;;;2.90;99.90;;;;;;5266323;27;20019;-83
2024/04/25 05:13:39;;;;;;;6.30;4.30;;;3.00;99.90;;;;;;5262490;27;20030;-83
2024/04/25 05:16:05;;;;;;;6.37;4.20;;;3.10;99.90;;;;;;5264966;27;20022;-83
2024/04/25 05:18:31;;;;;;;6.27;4.47;;;3.20;99.90;;;;;;5261930;27;20002;-84
2024/04/25 05:20:56;;;;;;;8.40;4.20;;;3.30;99.90;;;;;;5266065;27;20865;-83
2024/04/25 05:23:22;;;;;;;6.00;4.23;;;3.40;99.90;;;;;;5262966;27;20010;-84
2024/04/25 05:25:49;;;;;;;6.23;4.07;;;3.40;99.90;;;;;;5262596;27;20005;-86
2024/04/25 05:28:15;;;;;;;8.60;3.83;;;3.50;99.90;;;;;;5265643;27;20010;-83
2024/04/25 05:30:40;;;;;;;8.40;4.17;;;3.50;99.90;;;;;;5265755;27;20013;-84
2024/04/25 05:33:07;;;;;;;7.80;4.57;;;3.60;99.90;;;;;;5262135;27;20039;-84
2024/04/25 05:35:34;;;;;;;5.60;4.53;;;3.70;99.90;;;;;;5258468;27;20002;-84
2024/04/25 05:38:00;;;;;;;4.73;3.90;;;3.70;99.90;;;;;;5260667;27;20354;-85
2024/04/25 05:40:25;;;;;;;5.50;3.97;;;3.80;99.90;;;;;;5260892;27;20006;-84
2024/04/25 05:42:51;;;;;;;4.63;3.63;;;3.80;99.90;;;;;;5259606;27;20039;-83
2024/04/25 05:45:17;;;;;;;5.83;3.63;;;3.80;99.90;;;;;;5260776;27;20075;-82
2024/04/25 05:47:43;;;;;;;5.60;4.07;;;3.80;99.90;;;;;;5258746;27;20006;-86
2024/04/25 05:50:09;;;;;;;5.60;3.77;;;3.90;99.90;;;;;;5261008;27;20041;-85
2024/04/25 05:52:34;;;;;;;5.90;3.83;;;3.90;99.90;;;;;;5260421;27;20021;-85
2024/04/25 05:55:02;;;;;;;8.43;4.30;;;4.00;99.90;;;;;;5261715;27;20009;-84
2024/04/25 05:57:28;;;;;;;6.97;4.03;;;4.00;99.90;;;;;;5259766;27;20049;-83
2024/04/25 05:59:53;;;;;;;8.10;4.37;;;4.00;99.90;;;;;;5262075;27;20133;-82
2024/04/25 06:02:19;;;;;;;9.10;5.03;;;4.10;99.90;;;;;;5258947;27;20014;-88
2024/04/25 06:04:44;;;;;;;7.77;4.20;;;4.10;99.90;;;;;;5259764;27;20105;-86
2024/04/25 06:07:10;;;;;;;8.00;3.97;;;4.10;99.90;;;;;;5263171;27;20006;-87
2024/04/25 06:09:35;;;;;;;9.47;4.33;;;4.20;99.90;;;;;;5265291;27;20490;-87
2024/04/25 06:12:01;;;;;;;7.97;4.20;;;4.20;99.90;;;;;;5262815;27;19999;-86
2024/04/25 06:14:26;;;;;;;9.47;4.67;;;4.30;99.90;;;;;;5265375;27;20075;-87
2024/04/25 06:16:52;;;;;;;8.13;4.27;;;4.30;99.90;;;;;;5262039;27;20017;-85
2024/04/25 06:19:18;;;;;;;7.40;4.23;;;4.30;99.90;;;;;;5263250;27;20031;-86
2024/04/25 06:21:43;;;;;;;6.30;4.27;;;4.40;99.90;;;;;;5261953;27;20021;-86
2024/04/25 06:24:09;;;;;;;5.83;4.10;;;4.40;99.90;;;;;;5261612;27;20087;-86
2024/04/25 06:26:35;;;;;;;5.50;4.07;;;4.50;99.90;;;;;;5263257;27;20010;-86
2024/04/25 06:29:00;;;;;;;5.67;3.90;;;4.50;99.90;;;;;;5262966;27;20021;-85
2024/04/25 06:31:26;;;;;;;6.13;4.63;;;4.40;99.90;;;;;;5264255;27;20084;-86
2024/04/25 06:34:00;;;;;;;5.87;4.30;;;4.50;99.90;;;;;;5262410;27;20046;-87
2024/04/25 06:36:27;;;;;;;6.47;4.85;;;4.50;99.90;;;;;;5264014;27;20012;-86
2024/04/25 06:38:52;;;;;;;5.90;4.53;;;4.60;99.90;;;;;;5264333;27;20030;-85
2024/04/25 06:41:18;;;;;;;6.47;4.00;;;4.60;99.90;;;;;;5264260;27;20316;-86
2024/04/25 06:43:43;;;;;;;5.20;3.80;;;4.70;99.90;;;;;;5263347;27;20050;-86
2024/04/25 06:46:09;;;;;;;7.17;4.30;;;4.70;99.90;;;;;;5257899;27;20008;-85
2024/04/25 06:48:34;;;;;;;7.57;4.47;;;4.70;99.90;;;;;;5263618;27;20002;-85
2024/04/25 06:51:02;;;;;;;5.90;4.07;;;4.80;99.90;;;;;;5265126;27;20006;-86
2024/04/25 06:53:28;;;;;;;6.27;4.33;;;4.80;99.90;;;;;;5264949;27;20021;-86
2024/04/25 06:55:54;;;;;;;7.30;4.23;;;4.90;99.90;;;;;;5267569;27;19995;-86
2024/04/25 06:58:20;;;;;;;7.63;4.03;;;4.90;99.90;;;;;;5267295;27;20544;-87
2024/04/25 07:00:46;;;;;;;9.00;4.37;;;4.90;99.90;;;;;;5268513;27;20498;-86
2024/04/25 07:03:13;;;;;;;6.70;4.33;;;5.00;99.90;;;;;;5267489;27;20002;-86
2024/04/25 07:05:39;;;;;;;6.90;4.17;;;5.00;99.90;;;;;;5267141;27;20107;-86
2024/04/25 07:08:05;;;;;;;6.83;4.10;;;5.10;99.90;;;;;;5266272;27;20798;-88
2024/04/25 07:10:30;;;;;;;7.47;4.03;;;5.10;99.90;;;;;;5266498;27;19998;-86
2024/04/25 07:12:56;;;;;;;6.20;3.83;;;5.30;99.90;;;;;;5265069;27;20014;-86
2024/04/25 07:15:24;;;;;;;6.40;3.97;;;5.40;99.90;;;;;;5268244;27;20046;-86
2024/04/25 07:17:52;;;;;;;5.40;3.77;;;5.50;99.90;;;;;;5265090;27;20454;-86
2024/04/25 07:20:17;;;;;;;6.03;4.03;;;5.50;99.90;;;;;;5264955;27;21176;-86
2024/04/25 07:22:43;;;;;;;5.60;4.00;;;5.50;99.90;;;;;;5265137;27;20025;-86
2024/04/25 07:25:11;;;;;;;6.00;3.90;;;5.50;99.90;;;;;;5266122;27;20013;-85
2024/04/25 07:27:38;;;;;;;6.03;4.43;;;5.40;99.90;;;;;;5266225;27;20014;-85
2024/04/25 07:30:04;;;;;;;6.63;4.17;;;5.40;99.90;;;;;;5267297;27;20010;-86
2024/04/25 07:32:29;;;;;;;6.00;3.90;;;5.40;99.90;;;;;;5267091;27;20090;-86
2024/04/25 07:34:55;;;;;;;8.43;4.27;;;5.50;99.90;;;;;;5266929;27;20014;-85
2024/04/25 07:37:24;;;;;;;6.57;3.73;;;5.60;99.90;;;;;;5266846;27;20006;-85
2024/04/25 07:39:49;;;;;;;5.10;3.70;;;5.60;99.90;;;;;;5265437;27;20016;-85
2024/04/25 07:42:15;;;;;;;8.43;4.00;;;5.60;99.90;;;;;;5264746;27;20010;-85
2024/04/25 07:44:41;;;;;;;6.00;3.37;;;5.70;99.90;;;;;;5264771;27;20006;-85
2024/04/25 07:47:08;;;;;;;7.87;3.80;;;5.80;99.90;;;;;;5263918;27;20007;-85
2024/04/25 07:49:34;;;;;;;5.80;4.17;;;5.80;99.90;;;;;;5266408;27;19999;-85
2024/04/25 07:51:59;;;;;;;7.00;3.60;;;5.80;99.90;;;;;;5263542;27;20045;-85
2024/04/25 07:54:25;;;;;;;5.37;3.10;;;5.90;99.90;;;;;;5264518;27;20006;-85
2024/04/25 07:56:51;;;;;;;5.57;3.40;;;5.90;99.90;;;;;;5265772;27;20022;-86
2024/04/25 07:59:16;;;;;;;6.73;3.47;;;5.90;99.90;;;;;;5265959;27;20010;-88
2024/04/25 08:01:42;;;;;;;5.97;3.93;;;5.90;99.90;;;;;;5268669;27;19998;-86
2024/04/25 08:04:10;;;;;;;6.73;3.67;;;5.90;99.90;;;;;;5266730;27;20014;-86
2024/04/25 08:06:36;;;;;;;4.40;3.47;;;5.90;99.90;;;;;;5265716;27;20093;-86
2024/04/25 08:09:02;;;;;;;5.27;3.47;;;5.80;99.90;;;;;;5264468;27;20017;-85
2024/04/25 08:11:28;;;;;;;5.47;3.50;;;5.70;99.90;;;;;;5265259;27;20010;-85
2024/04/25 08:13:53;;;;;;;8.70;4.13;;;5.80;99.90;;;;;;5266365;27;20016;-85
2024/04/25 08:16:19;;;;;;;6.70;4.10;;;5.80;99.90;;;;;;5267188;27;20062;-87
2024/04/25 08:18:45;;;;;;;7.00;4.00;;;5.80;99.90;;;;;;5268370;27;20006;-85
2024/04/25 08:21:10;;;;;;;4.93;3.80;;;5.80;99.90;;;;;;5266900;27;20030;-85
2024/04/25 08:23:36;;;;;;;5.27;4.33;;;6.00;99.90;;;;;;5268482;27;20419;-85
2024/04/25 08:26:04;;;;;;;5.17;3.63;;;6.10;99.90;;;;;;5266123;27;20794;-86
2024/04/25 08:28:29;;;;;;;6.87;3.33;;;6.20;99.90;;;;;;5267257;27;20003;-85
2024/04/25 08:30:55;;;;;;;5.40;3.93;;;6.20;99.90;;;;;;5266572;27;20029;-87
2024/04/25 08:33:20;;;;;;;5.57;4.07;;;6.10;99.90;;;;;;5263506;27;20002;-76
2024/04/25 08:35:46;;;;;;;5.70;4.20;;;6.10;99.90;;;;;;5263016;27;20006;-87
2024/04/25 08:38:11;;;;;;;7.43;4.07;;;6.10;99.90;;;;;;5267698;27;20014;-86
2024/04/25 08:40:37;;;;;;;7.97;4.00;;;6.10;99.90;;;;;;5270234;27;20486;-89
2024/04/25 08:43:03;;;;;;;6.40;3.77;;;6.20;99.90;;;;;;5269237;27;20038;-86
2024/04/25 08:45:30;;;;;;;8.03;4.20;;;6.30;99.90;;;;;;5268586;27;20022;-86
2024/04/25 08:47:58;;;;;;;6.77;4.10;;;6.40;99.90;;;;;;5265903;27;20006;-85
2024/04/25 08:50:27;;;;;;;4.53;3.37;;;6.40;99.90;;;;;;5266617;27;20002;-87
2024/04/25 08:52:54;;;;;;;6.57;3.83;;;6.50;99.90;;;;;;5267665;27;20097;-86
2024/04/25 08:55:21;;;;;;;5.17;3.40;;;6.70;99.90;;;;;;5268836;27;20002;-89
2024/04/25 08:57:47;;;;;;;6.10;3.13;;;6.80;99.90;;;;;;5270298;27;20021;-85
2024/04/25 09:00:13;;;;;;;5.60;3.73;;;6.90;99.90;;;;;;5267985;27;20006;-86
2024/04/25 09:02:40;;;;;;;4.90;3.20;;;6.90;99.90;;;;;;5271176;27;20021;-88
2024/04/25 09:05:11;;;;;;;9.53;3.83;;;7.00;99.90;;;;;;5269211;27;21837;-89
2024/04/25 09:07:38;;;;;;;7.17;3.80;;;7.20;99.90;;;;;;5267767;27;20022;-86
2024/04/25 09:10:04;;;;;;;4.73;3.30;;;7.40;99.90;;;;;;5267121;27;20010;-81
2024/04/25 09:12:34;;;;;;;5.10;3.40;;;7.50;99.90;;;;;;5266976;27;20018;-87
2024/04/25 09:15:00;;;;;;;4.93;3.10;;;7.50;99.90;;;;;;5264438;27;20081;-87
2024/04/25 09:17:26;;;;;;;7.37;3.40;;;7.50;99.90;;;;;;5261792;27;20046;-89
2024/04/25 09:19:52;;;;;;;7.40;3.70;;;7.50;99.90;;;;;;5262216;27;20021;-88
2024/04/25 09:22:21;;;;;;;5.00;3.40;;;7.40;99.90;;;;;;5263241;27;20014;-87
2024/04/25 09:24:47;;;;;;;5.13;3.50;;;7.40;99.90;;;;;;5262934;27;20018;-86
2024/04/25 09:27:13;;;;;;;5.07;3.50;;;7.50;99.90;;;;;;5261935;27;20042;-86
2024/04/25 09:29:39;;;;;;;3.53;2.73;;;7.80;99.90;;;;;;5264377;27;20018;-86
2024/04/25 09:32:08;;;;;;;5.50;3.43;;;8.10;99.90;;;;;;5265347;27;20010;-89
2024/04/25 09:34:33;;;;;;;4.10;3.13;;;8.30;99.90;;;;;;5263447;27;20010;-88
2024/04/25 09:37:00;;;;;;;5.03;3.10;;;8.80;99.90;;;;;;5267558;27;20017;-88
2024/04/25 09:39:27;;;;;;;4.37;3.03;;;9.00;99.90;;;;;;5259514;27;20455;-88
2024/04/25 09:41:52;;;;;;;5.83;3.23;;;9.00;99.90;;;;;;5257861;27;20515;-87
2024/04/25 09:44:18;;;;;;;6.50;3.00;;;8.80;99.90;;;;;;5258686;27;20006;-90
2024/04/25 09:46:52;;;;;;;3.90;2.53;;;8.80;99.90;;;;;;5260012;27;20036;-90
2024/04/25 09:49:23;;;;;;;4.10;2.50;;;8.70;99.90;;;;;;5259074;27;20010;-87
2024/04/25 09:52:00;;;;;;;3.97;2.77;;;8.80;99.90;;;;;;5259820;27;20002;-87
2024/04/25 09:54:28;;;;;;;3.07;2.30;;;8.80;99.90;;;;;;5259528;27;20026;-88
2024/04/25 09:56:59;;;;;;;3.63;2.40;;;8.90;99.90;;;;;;5261008;27;20006;-87
2024/04/25 09:59:46;;;;;;;5.30;2.40;;;9.10;99.90;;;;;;5258794;27;20026;-87
2024/04/25 10:02:15;;;;;;;3.27;2.27;;;9.30;99.90;;;;;;5258630;27;20030;-87
2024/04/25 10:04:42;;;;;;;4.70;2.70;;;9.10;99.90;;;;;;5256873;27;20022;-87
2024/04/25 10:07:09;;;;;;;4.77;2.53;;;9.00;99.90;;;;;;5261168;27;20041;-87
2024/04/25 10:09:36;;;;;;;5.80;2.37;;;8.90;99.90;;;;;;5262751;27;20018;-86
2024/04/25 10:12:04;;;;;;;5.60;2.80;;;8.70;99.90;;;;;;5263459;27;20010;-86
2024/04/25 10:14:32;;;;;;;5.33;2.73;;;8.50;99.90;;;;;;5265416;27;20042;-86
2024/04/25 10:16:59;;;;;;;5.13;3.00;;;8.40;99.90;;;;;;5263508;27;20077;-86
2024/04/25 10:19:35;;;;;;;5.60;3.20;;;8.00;99.90;;;;;;5268299;27;20058;-87
2024/04/25 10:22:00;;;;;;;8.20;3.50;;;7.50;99.90;;;;;;5267620;27;20022;-85
2024/04/25 10:24:27;;;;;;;8.57;3.47;;;7.30;99.90;;;;;;5271758;27;20197;-85
2024/04/25 10:26:53;;;;;;;5.17;3.60;;;7.20;99.90;;;;;;5274261;27;20431;-88
2024/04/25 10:29:32;;;;;;;5.73;3.40;;;7.40;99.90;;;;;;5272012;27;19999;-87
2024/04/25 10:31:58;;;;;;;3.77;2.80;;;7.60;99.90;;;;;;5280789;27;20002;-88
2024/04/25 10:34:24;;;;;;;3.87;2.80;;;7.90;99.90;;;;;;5279026;27;20021;-88
2024/04/25 10:36:49;;;;;;;5.80;2.70;;;8.10;99.90;;;;;;5275117;27;20010;-88
2024/04/25 10:39:18;;;;;;;5.07;2.80;;;8.30;99.90;;;;;;5272613;27;20495;-87
2024/04/25 10:41:43;;;;;;;4.53;2.60;;;8.40;99.90;;;;;;5270518;27;20021;-87
2024/04/25 10:44:09;;;;;;;5.50;2.57;;;8.40;99.90;;;;;;5269524;27;20686;-88
2024/04/25 10:46:36;;;;;;;5.33;2.40;;;8.50;99.90;;;;;;5264620;27;20014;-88
2024/04/25 10:49:03;;;;;;;4.80;2.50;;;8.50;99.90;;;;;;5264443;27;20489;-87
2024/04/25 10:51:29;;;;;;;4.37;2.10;;;8.60;99.90;;;;;;5263607;27;20024;-87
2024/04/25 10:53:55;;;;;;;3.50;2.10;;;8.70;99.90;;;;;;5264996;27;22194;-87
2024/04/25 10:56:22;;;;;;;5.00;2.30;;;8.80;99.90;;;;;;5263965;27;20029;-86
2024/04/25 10:58:57;;;;;;;4.73;2.50;;;8.90;99.90;;;;;;5262046;27;20050;-89
2024/04/25 11:01:28;;;;;;;4.43;2.10;;;8.90;99.90;;;;;;5265983;27;19999;-87
2024/04/25 11:04:02;;;;;;;3.33;2.03;;;8.90;99.90;;;;;;5262121;27;20018;-86
2024/04/25 11:06:31;;;;;;;4.07;2.00;;;8.90;99.90;;;;;;5267032;27;20014;-86
2024/04/25 11:08:57;;;;;;;2.83;2.00;;;9.00;99.90;;;;;;5266532;27;21824;-86
2024/04/25 11:11:26;;;;;;;4.03;2.47;;;9.00;99.90;;;;;;5267729;27;20006;-86
2024/04/25 11:13:53;;;;;;;4.27;2.00;;;9.00;99.90;;;;;;5267872;27;20007;-85
2024/04/25 11:16:21;;;;;;;4.17;2.37;;;9.00;99.90;;;;;;5265786;27;20030;-85
2024/04/25 11:18:49;;;;;;;3.47;2.00;;;9.20;99.90;;;;;;5265885;27;20006;-85
2024/04/25 11:21:15;;;;;;;4.67;2.10;;;9.30;99.90;;;;;;5264817;27;19998;-85
2024/04/25 11:23:40;;;;;;;4.47;2.67;;;9.50;99.90;;;;;;5264278;27;20017;-86
2024/04/25 11:26:06;;;;;;;4.70;2.07;;;9.70;99.90;;;;;;5265319;27;20097;-85
2024/04/25 11:28:32;;;;;;;7.47;2.37;;;10.00;99.90;;;;;;5259831;27;20006;-88
2024/04/25 11:30:58;;;;;;;5.63;1.97;;;10.30;99.90;;;;;;5258883;27;19998;-87
2024/04/25 11:33:26;;;;;;;3.03;1.90;;;10.40;99.90;;;;;;5261578;27;20010;-87
2024/04/25 11:35:53;;;;;;;4.63;2.00;;;10.40;99.90;;;;;;5262536;27;20483;-88
2024/04/25 11:38:18;;;;;;;5.77;2.50;;;10.20;99.90;;;;;;5261544;27;20002;-87
2024/04/25 11:40:45;;;;;;;3.13;2.07;;;10.00;99.90;;;;;;5261393;27;20030;-87
2024/04/25 11:43:15;;;;;;;5.27;3.10;;;9.50;99.90;;;;;;5258975;27;20010;-87
2024/04/25 11:45:44;;;;;;;3.73;1.90;;;9.10;99.90;;;;;;5259230;27;20014;-87
2024/04/25 11:48:11;;;;;;;5.70;2.10;;;9.10;99.90;;;;;;5263098;27;20014;-85
2024/04/25 11:50:38;;;;;;;8.30;3.33;;;8.90;99.90;;;;;;5262355;27;20014;-85
2024/04/25 11:53:12;;;;;;;4.40;2.30;;;8.90;99.90;;;;;;5263096;27;20010;-85
2024/04/25 11:55:39;;;;;;;3.67;2.17;;;9.00;99.90;;;;;;5262613;27;20006;-85
2024/04/25 11:58:08;;;;;;;4.20;2.50;;;9.10;99.90;;;;;;5262850;27;20010;-86
2024/04/25 12:00:37;;;;;;;3.80;2.50;;;9.60;99.90;;;;;;5263704;27;20025;-85
2024/04/25 12:03:03;;;;;;;3.93;2.27;;;10.00;99.90;;;;;;5263275;27;20010;-85
2024/04/25 12:05:31;;;;;;;5.90;2.13;;;10.30;99.90;;;;;;5255336;27;20100;-86
2024/04/25 12:08:02;;;;;;;11.23;2.50;;;10.60;99.90;;;;;;5260898;27;20021;-86
2024/04/25 12:10:30;;;;;;;3.33;2.30;;;11.10;99.90;;;;;;5261912;27;20009;-85
2024/04/25 12:12:58;;;;;;;3.60;2.30;;;11.20;99.90;;;;;;5262885;27;20003;-85
2024/04/25 12:15:23;;;;;;;3.45;1.85;;;11.30;99.90;;;;;;5263868;27;20022;-85
2024/04/25 12:17:49;;;;;;;2.47;1.90;;;11.30;99.90;;;;;;5261113;27;21765;-86
2024/04/25 12:20:16;;;;;;;5.03;2.05;;;11.50;99.90;;;;;;5259571;27;20021;-87
2024/04/25 12:22:42;;;;;;;3.47;2.17;;;11.60;99.90;;;;;;5261974;27;20041;-85
2024/04/25 12:25:08;;;;;;;4.32;2.58;;;11.90;99.90;;;;;;5259918;27;19998;-85
2024/04/25 12:27:33;;;;;;;3.95;2.50;;;12.00;99.90;;;;;;5262669;27;20537;-85
2024/04/25 12:29:59;;;;;;;4.88;1.92;;;12.10;99.90;;;;;;5261774;27;20666;-85
2024/04/25 12:32:24;;;;;;;3.95;2.50;;;12.40;99.90;;;;;;5269794;27;20455;-85
2024/04/25 12:34:50;;;;;;;7.20;2.78;;;12.30;99.90;;;;;;5270078;27;20094;-85
2024/04/25 12:37:15;;;;;;;5.05;2.50;;;12.00;99.90;;;;;;5269806;27;20030;-78
2024/04/25 12:39:41;;;;;;;5.13;2.20;;;12.10;99.90;;;;;;5259119;27;20474;-78
2024/04/25 12:42:08;;;;;;;5.10;2.58;;;12.10;99.90;;;;;;5259914;27;20006;-79
2024/04/25 12:44:34;;;;;;;3.85;2.30;;;11.80;99.90;;;;;;5260002;27;20542;-80
2024/04/25 12:46:59;;;;;;;2.47;2.03;;;11.60;99.90;;;;;;5259962;27;20018;-84
2024/04/25 12:49:33;;;;;;;4.60;2.33;;;11.50;99.90;;;;;;5262316;27;20009;-84
2024/04/25 12:51:59;;;;;;;5.88;2.78;;;11.20;99.90;;;;;;5257927;27;20010;-84
2024/04/25 12:54:25;;;;;;;4.25;2.50;;;11.00;99.90;;;;;;5260966;27;20342;-82
2024/04/25 12:56:51;;;;;;;5.63;2.67;;;10.90;99.90;;;;;;5262004;27;20013;-82